Details From LTAI - Antalya
To LCRA - Akrotiri
Flight Number -
Tags Generated
Created
Modified
Stats Distance 175 nm / 325 km
Max Altitude 0 ft / 0 m
Waypoints 2
Social Downloads 1
Likes 0
Share VATSIM

Download

Looking for another format? Having issues loading an existing format? Contact us
Advertisement - Login to hide

Notes

Generated

Route

LTAI LCRA

ID Type Via Altitude Latitude Longitude Leg Dist Tot Dist Heading (true) Name
O LTAI APT - 0 ft / 0 m 36.91569˚ 30.79237˚ - 0 nm - -
O LCRA APT - 0 ft / 0 m 34.59417˚ 32.97350˚ 175 nm 175 nm 142° / 143° -

Altitude Profile

Advertisement - Login to hide

Weather


0- 5 10 15 20 25 30 35+ Temperature / ° C

Clouds and Precipitation
Forecast for 2018-05-23 06:00 UTC. Updated an hour ago

Ground ~20,000 ft ~40,000 ft Winds

LTAI

Details ICAO LTAI (AYT)
Name Antalya
Region Turkey
Timezone Europe/Istanbul (UTC+3.0)
Stats Elevation 177 ft / 54 m (AMSL)
Location 36.899598° 30.797507°
Runways 3
Magnetic Variation 5.112° E

METAR

LTAI 230350Z 36010KT CAVOK 25/13 Q1012 NOSIG

Decode

TAF

Not found

Departure Runways

ID Width Length Bearing (true) Bearing (mag) Surface Threshold Offset Overrun Length
18C 148 ft / 45 m 11,137 ft / 3,394 m 186.26° 181.15° Concrete 0 ft / 0 m 197 ft / 60 m
18L 148 ft / 45 m 11,180 ft / 3,408 m 186.28° 181.17° Concrete 0 ft / 0 m 197 ft / 60 m
18R 148 ft / 45 m 9,789 ft / 2,984 m 186.25° 181.14° Asphalt 0 ft / 0 m 984 ft / 300 m
36C 148 ft / 45 m 11,137 ft / 3,394 m 6.25° 1.14° Concrete 0 ft / 0 m 197 ft / 60 m
36L 148 ft / 45 m 9,789 ft / 2,984 m 6.25° 1.14° Asphalt 0 ft / 0 m 984 ft / 300 m
36R 148 ft / 45 m 11,180 ft / 3,408 m 6.28° 1.17° Concrete 0 ft / 0 m 197 ft / 60 m

LCRA

Details ICAO LCRA (AKT)
Name Akrotiri
Region Cyprus
Timezone Asia/Nicosia (UTC+3.0)
Stats Elevation 76 ft / 23 m (AMSL)
Location 34.590417° 32.987750°
Runways 1
Magnetic Variation 4.965° E

METAR

LCRA 230350Z 31002KT CAVOK 22/13 Q1012 NOSIG

Decode

TAF

TAF LCRA 230101Z 2303/2321 VRB03KT CAVOK BECMG 2309/2312 27015KT PROB30 TEMPO 2313/2320 28018G28KT

Decode

Destination Runways

ID Width Length Bearing (true) Bearing (mag) Surface Threshold Offset Overrun Length
10 200 ft / 61 m 8,988 ft / 2,740 m 107.72° 102.75° Asphalt 0 ft / 0 m 205 ft / 62 m
28 200 ft / 61 m 8,988 ft / 2,740 m 287.74° 282.77° Asphalt 0 ft / 0 m 205 ft / 62 m

Approach Navaids

Runway Type Ident Frequency Range Bearing (true) Bearing (mag) Slope Elevation
28 Localiser AK 109.70 MHz 18 nm / 33 km 287.62° 282.65° - 76 ft / 23 m (AMSL)
28 Glidescope AK 109.70 MHz 10 nm / 19 km 287.73° 282.76° 3.00° 76 ft / 23 m (AMSL)

Popular Alternatives